Butts AAF (Fort Carson) Air Field
KFCS : now visible

Airfield :











YOU CAN JOIN US ON...

 
LOGIN :

Register | Disclaimer

   EN    FR    IT 

 









Legend :    VFR   Marginal VFR   IFR   Intensive IFR   Very Intensive IFR
Visi :
Ceiling :
>= 8 km
>= 3000ft
5 to 8 km
1000 to 3000 ft
1500m to 5 km
500 to 1000 ft
800 to 1500m
200 to 500 ft
< 800m
< 200 ft
Symbols :   Thunderstorms  Fog  Heavy snow  Heavy precipitations  Wind > 20 kt






- Airport Elevation : 5838 ft


KFCS - Butts AAF (Fort Carson) Air Field

CURRENT METAR :
  • 220027Z AUTO 18012G21KT 10SM FEW210 12/M17 A2978 RMK AO2 WSHFT 26 SLP067 $

EXPIRED METARs :
  • 212355Z AUTO 06007KT 10SM OVC200 13/M13 A2980 RMK AO2 PK WND 26031/2254 SLP068 T01261126 10171 20109 52013 $
  • 212318Z AUTO 30020G29KT 10SM BKN160 BKN180 BKN210 13/M10 A2979 RMK AO2 WSHFT 07 SLP070 $
  • 212255Z AUTO 27024G34KT 10SM FEW180 FEW210 11/M06 A2978 RMK AO2 PK WND 26039/43 SLP072 T01111058 $
  • 212214Z AUTO 24028G36KT 10SM BKN170 BKN190 12/M09 A2978 RMK AO2 WSHFT 03 SLP067 $
  • 212159Z AUTO 28024G31KT 10SM SCT190 16/M11 A2977 RMK AO2 WSHFT 47 SLP053 $
  • 212155Z AUTO 25019G25KT 10SM SCT190 15/M12 A2976 RMK AO2 PK WND 23028/38 SLP049 T01481125 $
  • 212108Z AUTO 21017G25KT 10SM CLR 16/M13 A2974 RMK AO2 WSHFT 00 SLP042 $
  • 212055Z AUTO 23017G28KT 10SM CLR 16/M12 A2975 RMK AO2 PK WND 23031/34 SLP051 T01591125 57033 $
  • 211955Z AUTO 23019G28KT 10SM CLR 15/M15 A2979 RMK AO2 PK WND 25030/04 SLP060 T01481154 $

TAF TAF KFCS
Valid from the 21 at 21:00 until the 23 at 03:00 UTC


212100Z 2121/2303 25010G20KT 9999 SKC 510009 QNH2981INS
TEMPO 2121/2123 25020G30KT 520004 530409
BECMG 2207/2208 33012KT 9999 VCSH BKN100 QNH2990INS
BECMG 2219/2220 34010KT 8000 -SHRA BKN030 620309 QNH3012INS
BECMG 2223/2224 31010KT 9999 NSW BKN040 620409 QNH3011INS TX17/2121Z TNM02/2211Z
KZDV FIR / North America



MET'MAP, your aeronautical weather chart ! - Copyright ORBIFLY December 2007 - Disclaimer

ORBIFLY MET'MAP TEAM :

Programming & Development : Alexandra Zaïnal
Original concept : Baudouin d'Aumeries
Technical & hardware support : Manuel Goepfert
Assistance : Marc-Olivier Méhu




SOURCES & CREDITS :

   NOAA       Earth
Advisory